地図

経路データ

SID SEASON NUMBER BASIN SUBBASIN NAME ISO_TIME NATURE LAT LON WMO_WIND WMO_PRES WMO_AGENCY TRACK_TYPE DIST2LAND LANDFALL IFLAG USA_AGENCY USA_ATCF_ID USA_LAT USA_LON USA_RECORD USA_STATUS USA_WIND USA_PRES USA_SSHS USA_R34_NE USA_R34_SE USA_R34_SW USA_R34_NW USA_R50_NE USA_R50_SE USA_R50_SW USA_R50_NW USA_R64_NE USA_R64_SE USA_R64_SW USA_R64_NW USA_POCI USA_ROCI USA_RMW USA_EYE TOKYO_LAT TOKYO_LON TOKYO_GRADE TOKYO_WIND TOKYO_PRES TOKYO_R50_DIR TOKYO_R50_LONG TOKYO_R50_SHORT TOKYO_R30_DIR TOKYO_R30_LONG TOKYO_R30_SHORT TOKYO_LAND CMA_LAT CMA_LON CMA_CAT CMA_WIND CMA_PRES HKO_LAT HKO_LON HKO_CAT HKO_WIND HKO_PRES NEWDELHI_LAT NEWDELHI_LON NEWDELHI_GRADE NEWDELHI_WIND NEWDELHI_PRES NEWDELHI_CI NEWDELHI_DP NEWDELHI_POCI REUNION_LAT REUNION_LON REUNION_TYPE REUNION_WIND REUNION_PRES REUNION_TNUM REUNION_CI REUNION_RMW REUNION_R34_NE REUNION_R34_SE REUNION_R34_SW REUNION_R34_NW REUNION_R50_NE REUNION_R50_SE REUNION_R50_SW REUNION_R50_NW REUNION_R64_NE REUNION_R64_SE REUNION_R64_SW REUNION_R64_NW BOM_LAT BOM_LON BOM_TYPE BOM_WIND BOM_PRES BOM_TNUM BOM_CI BOM_RMW BOM_R34_NE BOM_R34_SE BOM_R34_SW BOM_R34_NW BOM_R50_NE BOM_R50_SE BOM_R50_SW BOM_R50_NW BOM_R64_NE BOM_R64_SE BOM_R64_SW BOM_R64_NW BOM_ROCI BOM_POCI BOM_EYE BOM_POS_METHOD BOM_PRES_METHOD NADI_LAT NADI_LON NADI_CAT NADI_WIND NADI_PRES WELLINGTON_LAT WELLINGTON_LON WELLINGTON_WIND WELLINGTON_PRES DS824_LAT DS824_LON DS824_STAGE DS824_WIND DS824_PRES TD9636_LAT TD9636_LON TD9636_STAGE TD9636_WIND TD9636_PRES TD9635_LAT TD9635_LON TD9635_WIND TD9635_PRES TD9635_ROCI NEUMANN_LAT NEUMANN_LON NEUMANN_CLASS NEUMANN_WIND NEUMANN_PRES MLC_LAT MLC_LON MLC_CLASS MLC_WIND MLC_PRES USA_GUST BOM_GUST BOM_GUST_PER REUNION_GUST REUNION_GUST_PER USA_SEAHGT USA_SEARAD_NE USA_SEARAD_SE USA_SEARAD_SW USA_SEARAD_NW STORM_SPEED STORM_DIR
1931244N19299 1931 33 NA NA NOT_NAMED 1931-09-01 00:00:00 TS 18.6000 -60.9000 25 hurdat_atl main 496 454 O_____________ hurdat_atl AL051931 18.6000 -60.9000 TD 25 -1 8 278
1931244N19299 1931 33 NA NA NOT_NAMED 1931-09-01 03:00:00 TS 18.6501 -61.2975 main 454 412 P_____________ AL051931 18.6501 -61.2975 TD 25 -1 8 278
1931244N19299 1931 33 NA NA NOT_NAMED 1931-09-01 06:00:00 TS 18.7000 -61.7000 25 hurdat_atl main 412 370 O_____________ hurdat_atl AL051931 18.7000 -61.7000 TD 25 -1 8 277
1931244N19299 1931 33 NA NA NOT_NAMED 1931-09-01 09:00:00 TS 18.7500 -62.1075 main 370 329 P_____________ AL051931 18.7500 -62.1075 TD 25 -1 8 278
1931244N19299 1931 33 NA NA NOT_NAMED 1931-09-01 12:00:00 TS 18.8000 -62.5000 25 hurdat_atl main 329 298 O_____________ hurdat_atl AL051931 18.8000 -62.5000 TD 25 -1 7 278
1931244N19299 1931 33 NA NA NOT_NAMED 1931-09-01 15:00:00 TS 18.8499 -62.8575 main 288 258 P_____________ AL051931 18.8499 -62.8575 TD 25 -1 7 279
1931244N19299 1931 33 NA NA NOT_NAMED 1931-09-01 18:00:00 TS 18.9000 -63.2000 25 hurdat_atl main 258 228 O_____________ hurdat_atl AL051931 18.9000 -63.2000 TD 25 -1 7 279
1931244N19299 1931 33 NA NA NOT_NAMED 1931-09-01 21:00:00 TS 18.9499 -63.5500 main 218 191 P_____________ AL051931 18.9499 -63.5500 TD 27 -1 7 279
1931244N19299 1931 33 NA CS NOT_NAMED 1931-09-02 00:00:00 TS 19.0000 -63.9000 30 hurdat_atl main 191 162 O_____________ hurdat_atl AL051931 19.0000 -63.9000 TD 30 -1 7 279
1931244N19299 1931 33 NA NA NOT_NAMED 1931-09-02 03:00:00 TS 19.0499 -64.2425 main 162 131 P_____________ AL051931 19.0499 -64.2425 TD 30 -1 7 279
1931244N19299 1931 33 NA NA NOT_NAMED 1931-09-02 06:00:00 TS 19.1000 -64.6000 30 hurdat_atl main 131 100 O_____________ hurdat_atl AL051931 19.1000 -64.6000 TD 30 -1 7 278
1931244N19299 1931 33 NA NA NOT_NAMED 1931-09-02 09:00:00 TS 19.1499 -64.9775 main 100 91 P_____________ AL051931 19.1499 -64.9775 TD 30 -1 8 278
1931244N19299 1931 33 NA NA NOT_NAMED 1931-09-02 12:00:00 TS 19.2000 -65.4000 30 hurdat_atl main 91 89 O_____________ hurdat_atl AL051931 19.2000 -65.4000 TD 30 -1 8 277
1931244N19299 1931 33 NA NA NOT_NAMED 1931-09-02 15:00:00 TS 19.2498 -65.8700 main 89 89 P_____________ AL051931 19.2498 -65.8700 TD 30 -1 10 276
1931244N19299 1931 33 NA NA NOT_NAMED 1931-09-02 18:00:00 TS 19.3000 -66.4000 30 hurdat_atl main 100 100 O_____________ hurdat_atl AL051931 19.3000 -66.4000 TD 30 -1 11 275
1931244N19299 1931 33 NA NA NOT_NAMED 1931-09-02 21:00:00 TS 19.3501 -67.0075 main 111 111 P_____________ AL051931 19.3501 -67.0075 TD 32 -1 11 275
1931244N19299 1931 33 NA NA NOT_NAMED 1931-09-03 00:00:00 TS 19.4000 -67.6000 35 hurdat_atl main 115 92 O_____________ hurdat_atl AL051931 19.4000 -67.6000 TS 35 0 10 276
1931244N19299 1931 33 NA NA NOT_NAMED 1931-09-03 03:00:00 TS 19.4572 -68.0725 main 94 74 P_____________ AL051931 19.4572 -68.0725 TS 35 0 9 277
1931244N19299 1931 33 NA NA NOT_NAMED 1931-09-03 06:00:00 TS 19.5000 -68.5000 35 hurdat_atl main 74 46 O_____________ hurdat_atl AL051931 19.5000 -68.5000 TS 35 0 8 274
1931244N19299 1931 33 NA NA NOT_NAMED 1931-09-03 09:00:00 TS 19.5071 -68.9126 main 46 22 P_____________ AL051931 19.5071 -68.9126 TS 37 0 8 270
1931244N19299 1931 33 NA NA NOT_NAMED 1931-09-03 12:00:00 TS 19.5000 -69.4000 40 hurdat_atl main 24 0 O_____________ hurdat_atl AL051931 19.5000 -69.4000 TS 40 0 11 270
1931244N19299 1931 33 NA NA NOT_NAMED 1931-09-03 15:00:00 TS 19.5000 -70.0550 main 0 0 P_____________ AL051931 19.5000 -70.0550 TS 37 0 13 270
1931244N19299 1931 33 NA NA NOT_NAMED 1931-09-03 18:00:00 TS 19.5000 -70.8000 35 hurdat_atl main 0 0 O_____________ hurdat_atl AL051931 19.5000 -70.8000 TS 35 0 14 270
1931244N19299 1931 33 NA NA NOT_NAMED 1931-09-03 21:00:00 TS 19.5005 -71.5525 main 0 0 P_____________ AL051931 19.5005 -71.5525 TS 32 -1 14 270
1931244N19299 1931 33 NA NA NOT_NAMED 1931-09-04 00:00:00 TS 19.5000 -72.3000 30 hurdat_atl main 0 O_____________ hurdat_atl AL051931 19.5000 -72.3000 TD 30 -1 14 270

IBTrACS Databaseについて

本データベースは、米国NOAAが公開する1842年以降の世界の熱帯低気圧のベストトラックデータアーカイブInternational Best Track Archive for Climate Stewardship (IBTrACS)を、ウェブで閲覧しやすい形式に変換したものです。

最終更新日:2021-12-03